sensor_id;sensor_type;location;lat;lon;timestamp;pressure;altitude;pressure_sealevel;temperature;humidity
32789;BME280;19141;48.980;8.410;2023-07-31T04:22:32;100132.13;;;15.79;88.35
32789;BME280;19141;48.980;8.410;2023-07-31T04:24:58;100141.22;;;15.85;88.13
32789;BME280;19141;48.980;8.410;2023-07-31T04:27:24;100127.13;;;15.89;87.50
32789;BME280;19141;48.980;8.410;2023-07-31T04:29:49;100131.25;;;15.98;86.80
32789;BME280;19141;48.980;8.410;2023-07-31T04:32:15;100138.06;;;16.01;87.27
32789;BME280;19141;48.980;8.410;2023-07-31T04:34:44;100140.13;;;16.06;86.96
32789;BME280;19141;48.980;8.410;2023-07-31T04:37:09;100126.25;;;16.09;86.86
32789;BME280;19141;48.980;8.410;2023-07-31T04:39:35;100126.25;;;16.09;86.46
32789;BME280;19141;48.980;8.410;2023-07-31T04:42:00;100120.25;;;16.13;86.38
32789;BME280;19141;48.980;8.410;2023-07-31T04:44:25;100119.00;;;16.16;86.02
32789;BME280;19141;48.980;8.410;2023-07-31T04:46:51;100127.25;;;16.21;85.97
32789;BME280;19141;48.980;8.410;2023-07-31T04:49:16;100123.53;;;16.22;86.11
32789;BME280;19141;48.980;8.410;2023-07-31T04:51:42;100125.16;;;16.23;86.11
32789;BME280;19141;48.980;8.410;2023-07-31T04:54:07;100129.72;;;16.22;85.56
32789;BME280;19141;48.980;8.410;2023-07-31T04:56:33;100123.09;;;16.25;85.70
32789;BME280;19141;48.980;8.410;2023-07-31T04:58:58;100122.44;;;16.29;86.38
32789;BME280;19141;48.980;8.410;2023-07-31T05:01:23;100123.50;;;16.28;85.77
32789;BME280;19141;48.980;8.410;2023-07-31T05:03:49;100113.38;;;16.31;85.52
32789;BME280;19141;48.980;8.410;2023-07-31T05:06:14;100117.94;;;16.30;85.21
32789;BME280;19141;48.980;8.410;2023-07-31T05:08:40;100116.88;;;16.31;85.88
32789;BME280;19141;48.980;8.410;2023-07-31T05:11:06;100113.34;;;16.37;85.51
32789;BME280;19141;48.980;8.410;2023-07-31T05:13:31;100118.28;;;16.40;85.33
32789;BME280;19141;48.980;8.410;2023-07-31T05:15:56;100113.50;;;16.42;84.79
32789;BME280;19141;48.980;8.410;2023-07-31T05:18:24;100111.22;;;16.46;85.21
32789;BME280;19141;48.980;8.410;2023-07-31T05:20:49;100113.06;;;16.52;83.97
32789;BME280;19141;48.980;8.410;2023-07-31T05:23:15;100112.41;;;16.57;84.64
32789;BME280;19141;48.980;8.410;2023-07-31T05:25:40;100119.19;;;16.66;83.96
32789;BME280;19141;48.980;8.410;2023-07-31T05:28:05;100119.16;;;16.72;83.36
32789;BME280;19141;48.980;8.410;2023-07-31T05:30:31;100115.16;;;16.81;82.75
32789;BME280;19141;48.980;8.410;2023-07-31T05:32:56;100117.00;;;16.88;82.97
32789;BME280;19141;48.980;8.410;2023-07-31T05:35:22;100107.63;;;16.97;82.22
32789;BME280;19141;48.980;8.410;2023-07-31T05:37:47;100116.66;;;17.09;82.62
32789;BME280;19141;48.980;8.410;2023-07-31T05:40:13;100112.84;;;17.17;82.02
32789;BME280;19141;48.980;8.410;2023-07-31T05:42:39;100113.16;;;17.27;80.45
32789;BME280;19141;48.980;8.410;2023-07-31T05:45:06;100114.16;;;17.32;80.93
32789;BME280;19141;48.980;8.410;2023-07-31T05:47:31;100120.13;;;17.41;79.80
32789;BME280;19141;48.980;8.410;2023-07-31T05:49:57;100112.56;;;17.50;79.48
32789;BME280;19141;48.980;8.410;2023-07-31T05:52:22;100113.31;;;17.57;79.23
32789;BME280;19141;48.980;8.410;2023-07-31T05:54:48;100106.59;;;17.66;78.00
32789;BME280;19141;48.980;8.410;2023-07-31T05:57:13;100103.47;;;17.69;78.79
32789;BME280;19141;48.980;8.410;2023-07-31T05:59:38;100106.13;;;17.76;78.68
32789;BME280;19141;48.980;8.410;2023-07-31T06:02:04;100114.13;;;17.82;78.39
32789;BME280;19141;48.980;8.410;2023-07-31T06:04:29;100108.34;;;17.79;79.66
32789;BME280;19141;48.980;8.410;2023-07-31T06:06:56;100113.69;;;17.85;78.53
32789;BME280;19141;48.980;8.410;2023-07-31T06:09:21;100105.97;;;17.89;78.01
32789;BME280;19141;48.980;8.410;2023-07-31T06:11:47;100104.84;;;17.97;78.12
32789;BME280;19141;48.980;8.410;2023-07-31T06:14:12;100094.59;;;18.05;75.69
32789;BME280;19141;48.980;8.410;2023-07-31T06:16:38;100104.25;;;18.13;76.51
32789;BME280;19141;48.980;8.410;2023-07-31T06:19:03;100101.47;;;18.20;74.95
32789;BME280;19141;48.980;8.410;2023-07-31T06:21:29;100104.53;;;18.23;75.37
32789;BME280;19141;48.980;8.410;2023-07-31T06:23:55;100097.28;;;18.24;74.48
32789;BME280;19141;48.980;8.410;2023-07-31T06:26:20;100113.13;;;18.32;74.29
32789;BME280;19141;48.980;8.410;2023-07-31T06:28:45;100103.31;;;18.37;73.22
32789;BME280;19141;48.980;8.410;2023-07-31T06:31:11;100110.50;;;18.43;74.71
32789;BME280;19141;48.980;8.410;2023-07-31T06:33:37;100111.47;;;18.49;74.61
32789;BME280;19141;48.980;8.410;2023-07-31T06:36:02;100105.16;;;18.55;74.45
32789;BME280;19141;48.980;8.410;2023-07-31T06:38:27;100110.00;;;18.65;74.94
32789;BME280;19141;48.980;8.410;2023-07-31T06:40:53;100101.38;;;18.75;73.71
32789;BME280;19141;48.980;8.410;2023-07-31T06:43:19;100104.94;;;18.87;72.84
32789;BME280;19141;48.980;8.410;2023-07-31T06:45:44;100108.34;;;18.94;71.91
32789;BME280;19141;48.980;8.410;2023-07-31T06:48:11;100102.47;;;18.97;73.22
32789;BME280;19141;48.980;8.410;2023-07-31T06:50:36;100104.03;;;19.05;72.72
32789;BME280;19141;48.980;8.410;2023-07-31T06:53:02;100100.28;;;19.06;70.90
32789;BME280;19141;48.980;8.410;2023-07-31T06:55:28;100113.06;;;19.10;69.96
32789;BME280;19141;48.980;8.410;2023-07-31T06:57:55;100102.88;;;19.12;70.31
32789;BME280;19141;48.980;8.410;2023-07-31T07:00:21;100093.47;;;19.15;71.19
32789;BME280;19141;48.980;8.410;2023-07-31T07:02:48;100091.25;;;19.12;70.64
32789;BME280;19141;48.980;8.410;2023-07-31T07:05:14;100087.13;;;19.09;70.77
32789;BME280;19141;48.980;8.410;2023-07-31T07:07:40;100084.22;;;19.11;70.93
32789;BME280;19141;48.980;8.410;2023-07-31T07:10:06;100084.44;;;19.09;70.74
32789;BME280;19141;48.980;8.410;2023-07-31T07:12:32;100086.56;;;19.07;70.86
32789;BME280;19141;48.980;8.410;2023-07-31T07:14:58;100079.84;;;19.10;70.74
32789;BME280;19141;48.980;8.410;2023-07-31T07:17:24;100085.72;;;19.07;70.04
32789;BME280;19141;48.980;8.410;2023-07-31T07:19:50;100074.81;;;19.13;69.55
32789;BME280;19141;48.980;8.410;2023-07-31T07:22:15;100073.41;;;19.22;70.36
32789;BME280;19141;48.980;8.410;2023-07-31T07:24:41;100074.22;;;19.23;69.40
32789;BME280;19141;48.980;8.410;2023-07-31T07:27:06;100076.00;;;19.29;68.38
32789;BME280;19141;48.980;8.410;2023-07-31T07:29:33;100073.19;;;19.36;68.21
32789;BME280;19141;48.980;8.410;2023-07-31T07:31:59;100080.47;;;19.47;67.15
32789;BME280;19141;48.980;8.410;2023-07-31T07:34:26;100077.66;;;19.53;65.13
32789;BME280;19141;48.980;8.410;2023-07-31T07:36:52;100069.44;;;19.60;64.77
32789;BME280;19141;48.980;8.410;2023-07-31T07:39:17;100061.91;;;19.62;65.77
32789;BME280;19141;48.980;8.410;2023-07-31T07:41:43;100068.88;;;19.58;65.08
32789;BME280;19141;48.980;8.410;2023-07-31T07:44:08;100066.16;;;19.58;65.99
32789;BME280;19141;48.980;8.410;2023-07-31T07:46:34;100065.34;;;19.58;65.32
32789;BME280;19141;48.980;8.410;2023-07-31T07:48:59;100062.75;;;19.63;67.29
32789;BME280;19141;48.980;8.410;2023-07-31T07:51:25;100055.44;;;19.75;66.02
32789;BME280;19141;48.980;8.410;2023-07-31T07:53:50;100054.28;;;19.83;65.59
32789;BME280;19141;48.980;8.410;2023-07-31T07:56:16;100055.78;;;19.90;64.29
32789;BME280;19141;48.980;8.410;2023-07-31T07:58:41;100053.75;;;19.97;65.71
32789;BME280;19141;48.980;8.410;2023-07-31T08:01:06;100057.38;;;20.03;65.63
32789;BME280;19141;48.980;8.410;2023-07-31T08:03:32;100066.88;;;20.05;64.95
32789;BME280;19141;48.980;8.410;2023-07-31T08:06:01;100067.47;;;20.08;62.93
32789;BME280;19141;48.980;8.410;2023-07-31T08:08:27;100059.00;;;20.16;64.17
32789;BME280;19141;48.980;8.410;2023-07-31T08:10:53;100064.84;;;20.24;65.35
32789;BME280;19141;48.980;8.410;2023-07-31T08:13:18;100072.22;;;20.29;63.28
32789;BME280;19141;48.980;8.410;2023-07-31T08:15:44;100067.88;;;20.28;64.93
32789;BME280;19141;48.980;8.410;2023-07-31T08:18:10;100062.09;;;20.36;63.52
32789;BME280;19141;48.980;8.410;2023-07-31T08:20:36;100057.50;;;20.37;61.25
32789;BME280;19141;48.980;8.410;2023-07-31T08:23:02;100056.69;;;20.36;62.22
32789;BME280;19141;48.980;8.410;2023-07-31T08:25:27;100048.88;;;20.40;61.63
32789;BME280;19141;48.980;8.410;2023-07-31T08:27:53;100053.72;;;20.49;61.09
32789;BME280;19141;48.980;8.410;2023-07-31T08:30:19;100049.59;;;20.47;62.61
32789;BME280;19141;48.980;8.410;2023-07-31T08:32:44;100051.81;;;20.50;62.92
32789;BME280;19141;48.980;8.410;2023-07-31T08:35:10;100058.00;;;20.62;61.98
32789;BME280;19141;48.980;8.410;2023-07-31T08:37:37;100045.88;;;20.81;61.18
32789;BME280;19141;48.980;8.410;2023-07-31T08:40:03;100043.00;;;20.88;59.68
32789;BME280;19141;48.980;8.410;2023-07-31T08:42:29;100034.13;;;20.93;58.63
32789;BME280;19141;48.980;8.410;2023-07-31T08:44:56;100038.56;;;20.99;58.40
32789;BME280;19141;48.980;8.410;2023-07-31T08:47:22;100022.50;;;21.09;57.96
32789;BME280;19141;48.980;8.410;2023-07-31T08:49:47;100033.84;;;21.45;59.42
32789;BME280;19141;48.980;8.410;2023-07-31T08:52:13;100030.59;;;21.64;57.28
32789;BME280;19141;48.980;8.410;2023-07-31T08:54:39;100032.09;;;21.72;56.40
32789;BME280;19141;48.980;8.410;2023-07-31T08:57:06;100028.50;;;21.66;55.45
32789;BME280;19141;48.980;8.410;2023-07-31T08:59:34;100024.06;;;21.60;56.53
32789;BME280;19141;48.980;8.410;2023-07-31T09:02:05;100028.28;;;21.73;56.72
32789;BME280;19141;48.980;8.410;2023-07-31T09:04:33;100021.56;;;21.98;57.28
32789;BME280;19141;48.980;8.410;2023-07-31T09:07:02;100022.81;;;22.12;55.20
32789;BME280;19141;48.980;8.410;2023-07-31T09:09:30;100017.41;;;22.12;55.14
32789;BME280;19141;48.980;8.410;2023-07-31T09:11:57;100017.63;;;22.32;55.48
32789;BME280;19141;48.980;8.410;2023-07-31T09:14:25;100003.72;;;22.56;54.13
32789;BME280;19141;48.980;8.410;2023-07-31T09:16:57;100002.06;;;22.55;54.63
32789;BME280;19141;48.980;8.410;2023-07-31T09:19:31;99995.75;;;22.76;52.87
32789;BME280;19141;48.980;8.410;2023-07-31T09:21:59;99987.03;;;22.74;51.80
32789;BME280;19141;48.980;8.410;2023-07-31T09:24:28;99991.91;;;22.72;52.23
32789;BME280;19141;48.980;8.410;2023-07-31T09:26:55;99979.34;;;22.93;52.39
32789;BME280;19141;48.980;8.410;2023-07-31T09:29:22;99988.94;;;23.06;51.81
32789;BME280;19141;48.980;8.410;2023-07-31T09:31:47;99981.72;;;23.21;50.96
32789;BME280;19141;48.980;8.410;2023-07-31T09:34:12;99982.53;;;23.27;51.11
32789;BME280;19141;48.980;8.410;2023-07-31T09:36:45;99976.75;;;23.13;50.83
32789;BME280;19141;48.980;8.410;2023-07-31T09:39:12;99985.13;;;23.07;51.32
32789;BME280;19141;48.980;8.410;2023-07-31T09:41:47;99980.03;;;23.15;52.15
32789;BME280;19141;48.980;8.410;2023-07-31T09:44:13;99975.72;;;23.19;49.72
32789;BME280;19141;48.980;8.410;2023-07-31T09:46:38;99970.22;;;23.09;49.77
32789;BME280;19141;48.980;8.410;2023-07-31T09:51:35;99964.41;;;23.38;49.89
32789;BME280;19141;48.980;8.410;2023-07-31T09:54:08;99965.31;;;23.59;49.89
32789;BME280;19141;48.980;8.410;2023-07-31T09:56:34;99972.16;;;23.61;50.05
32789;BME280;19141;48.980;8.410;2023-07-31T09:59:03;99965.28;;;23.48;51.02
32789;BME280;19141;48.980;8.410;2023-07-31T10:01:29;99960.25;;;23.25;51.33
32789;BME280;19141;48.980;8.410;2023-07-31T10:03:55;99961.06;;;23.25;51.01
32789;BME280;19141;48.980;8.410;2023-07-31T10:06:22;99957.22;;;23.16;51.32
32789;BME280;19141;48.980;8.410;2023-07-31T10:08:49;99954.94;;;22.98;49.77
32789;BME280;19141;48.980;8.410;2023-07-31T10:11:16;99943.44;;;23.28;50.79
32789;BME280;19141;48.980;8.410;2023-07-31T10:13:42;99944.06;;;23.50;49.21
32789;BME280;19141;48.980;8.410;2023-07-31T10:16:09;99957.22;;;23.69;49.72
32789;BME280;19141;48.980;8.410;2023-07-31T10:18:35;99936.72;;;23.46;48.77
32789;BME280;19141;48.980;8.410;2023-07-31T10:21:00;99945.84;;;23.82;48.36
32789;BME280;19141;48.980;8.410;2023-07-31T10:23:27;99958.41;;;24.03;47.59
32789;BME280;19141;48.980;8.410;2023-07-31T10:25:53;99944.81;;;23.93;47.83
32789;BME280;19141;48.980;8.410;2023-07-31T10:28:20;99946.41;;;23.89;48.82
32789;BME280;19141;48.980;8.410;2023-07-31T10:30:46;99943.66;;;23.79;51.28
32789;BME280;19141;48.980;8.410;2023-07-31T10:33:11;99954.66;;;23.52;49.21
32789;BME280;19141;48.980;8.410;2023-07-31T10:35:37;99949.69;;;23.28;50.84
32789;BME280;19141;48.980;8.410;2023-07-31T10:38:12;99950.97;;;23.21;50.97
32789;BME280;19141;48.980;8.410;2023-07-31T10:40:38;99951.69;;;22.96;51.11
32789;BME280;19141;48.980;8.410;2023-07-31T10:43:03;99950.88;;;23.00;52.82
32789;BME280;19141;48.980;8.410;2023-07-31T10:48:00;99962.31;;;23.08;51.87
32789;BME280;19141;48.980;8.410;2023-07-31T10:50:26;99957.50;;;23.15;52.47
32789;BME280;19141;48.980;8.410;2023-07-31T10:52:56;99944.78;;;22.83;51.91
32789;BME280;19141;48.980;8.410;2023-07-31T10:58:18;99946.00;;;23.02;53.85
32789;BME280;19141;48.980;8.410;2023-07-31T11:00:44;99933.69;;;23.37;52.30
32789;BME280;19141;48.980;8.410;2023-07-31T11:03:12;99944.75;;;23.83;52.43
32789;BME280;19141;48.980;8.410;2023-07-31T11:08:13;99937.16;;;23.80;50.27
32789;BME280;19141;48.980;8.410;2023-07-31T11:10:39;99925.34;;;23.59;49.88
32789;BME280;19141;48.980;8.410;2023-07-31T11:13:04;99931.38;;;23.61;51.20
32789;BME280;19141;48.980;8.410;2023-07-31T11:15:30;99924.59;;;23.69;50.64
32789;BME280;19141;48.980;8.410;2023-07-31T11:17:56;99916.09;;;23.60;52.18
32789;BME280;19141;48.980;8.410;2023-07-31T11:20:26;99924.63;;;23.84;51.83
32789;BME280;19141;48.980;8.410;2023-07-31T11:22:52;99925.75;;;23.98;49.69
32789;BME280;19141;48.980;8.410;2023-07-31T11:25:18;99901.06;;;24.46;47.94
32789;BME280;19141;48.980;8.410;2023-07-31T11:27:43;99905.94;;;24.69;48.20
32789;BME280;19141;48.980;8.410;2023-07-31T11:30:09;99906.94;;;25.04;47.67
32789;BME280;19141;48.980;8.410;2023-07-31T11:32:38;99906.69;;;25.00;47.64
32789;BME280;19141;48.980;8.410;2023-07-31T11:35:03;99909.41;;;24.95;45.91
32789;BME280;19141;48.980;8.410;2023-07-31T11:37:41;99904.00;;;24.85;46.35
32789;BME280;19141;48.980;8.410;2023-07-31T11:40:07;99898.00;;;24.93;48.17
32789;BME280;19141;48.980;8.410;2023-07-31T11:42:32;99913.25;;;24.94;47.75
32789;BME280;19141;48.980;8.410;2023-07-31T11:45:02;99899.38;;;24.75;47.24
32789;BME280;19141;48.980;8.410;2023-07-31T11:47:27;99906.19;;;24.83;46.22
32789;BME280;19141;48.980;8.410;2023-07-31T11:49:53;99900.19;;;24.91;48.54
32789;BME280;19141;48.980;8.410;2023-07-31T11:52:18;99892.22;;;25.15;47.72
32789;BME280;19141;48.980;8.410;2023-07-31T11:54:46;99890.09;;;25.66;46.70
32789;BME280;19141;48.980;8.410;2023-07-31T11:57:12;99894.22;;;26.08;44.70
32789;BME280;19141;48.980;8.410;2023-07-31T11:59:38;99885.81;;;26.00;44.39
32789;BME280;19141;48.980;8.410;2023-07-31T12:02:04;99881.97;;;25.56;45.14
32789;BME280;19141;48.980;8.410;2023-07-31T12:04:30;99885.53;;;25.57;44.95
32789;BME280;19141;48.980;8.410;2023-07-31T12:06:56;99879.91;;;25.33;45.14
32789;BME280;19141;48.980;8.410;2023-07-31T12:09:21;99875.94;;;25.59;44.99
32789;BME280;19141;48.980;8.410;2023-07-31T12:11:47;99863.84;;;25.26;47.09
32789;BME280;19141;48.980;8.410;2023-07-31T12:14:25;99874.25;;;25.04;47.65
32789;BME280;19141;48.980;8.410;2023-07-31T12:17:00;99869.38;;;25.01;47.59
32789;BME280;19141;48.980;8.410;2023-07-31T12:19:26;99857.38;;;24.97;46.86
32789;BME280;19141;48.980;8.410;2023-07-31T12:21:56;99849.16;;;25.77;45.77
32789;BME280;19141;48.980;8.410;2023-07-31T12:24:21;99852.25;;;25.99;45.41
32789;BME280;19141;48.980;8.410;2023-07-31T12:26:48;99839.22;;;26.25;44.13
32789;BME280;19141;48.980;8.410;2023-07-31T12:29:14;99834.94;;;26.14;45.96
32789;BME280;19141;48.980;8.410;2023-07-31T12:31:41;99831.94;;;26.15;45.67
32789;BME280;19141;48.980;8.410;2023-07-31T12:34:15;99843.50;;;25.63;46.53
32789;BME280;19141;48.980;8.410;2023-07-31T12:36:42;99844.44;;;25.43;47.30
32789;BME280;19141;48.980;8.410;2023-07-31T12:39:07;99839.03;;;25.33;46.29
32789;BME280;19141;48.980;8.410;2023-07-31T12:41:33;99837.25;;;24.93;47.34
32789;BME280;19141;48.980;8.410;2023-07-31T12:43:58;99833.56;;;24.48;46.80
32789;BME280;19141;48.980;8.410;2023-07-31T12:46:24;99834.66;;;24.52;49.10
32789;BME280;19141;48.980;8.410;2023-07-31T12:48:49;99831.94;;;24.42;50.43
32789;BME280;19141;48.980;8.410;2023-07-31T12:51:15;99829.22;;;24.42;51.24
32789;BME280;19141;48.980;8.410;2023-07-31T12:53:40;99825.66;;;24.26;50.70
32789;BME280;19141;48.980;8.410;2023-07-31T12:56:06;99813.16;;;24.15;50.18
32789;BME280;19141;48.980;8.410;2023-07-31T12:58:31;99804.72;;;24.16;51.82
32789;BME280;19141;48.980;8.410;2023-07-31T13:00:56;99804.97;;;24.25;51.77
32789;BME280;19141;48.980;8.410;2023-07-31T13:03:22;99805.00;;;24.45;50.63
32789;BME280;19141;48.980;8.410;2023-07-31T13:05:47;99817.47;;;24.61;51.23
32789;BME280;19141;48.980;8.410;2023-07-31T13:08:13;99808.44;;;24.76;49.66
32789;BME280;19141;48.980;8.410;2023-07-31T13:10:41;99804.28;;;24.89;49.66
32789;BME280;19141;48.980;8.410;2023-07-31T13:13:06;99793.38;;;24.94;48.01
32789;BME280;19141;48.980;8.410;2023-07-31T13:15:32;99789.06;;;24.83;48.51
32789;BME280;19141;48.980;8.410;2023-07-31T13:17:57;99788.59;;;24.60;48.65
32789;BME280;19141;48.980;8.410;2023-07-31T13:20:22;99783.41;;;24.69;49.00
32789;BME280;19141;48.980;8.410;2023-07-31T13:22:48;99784.00;;;24.51;49.48
32789;BME280;19141;48.980;8.410;2023-07-31T13:25:13;99780.47;;;24.30;48.90
32789;BME280;19141;48.980;8.410;2023-07-31T13:27:39;99779.69;;;24.34;50.39
32789;BME280;19141;48.980;8.410;2023-07-31T13:30:05;99776.94;;;24.29;51.24
32789;BME280;19141;48.980;8.410;2023-07-31T13:32:31;99775.06;;;24.40;51.17
32789;BME280;19141;48.980;8.410;2023-07-31T13:34:56;99778.03;;;24.39;50.88
32789;BME280;19141;48.980;8.410;2023-07-31T13:37:22;99781.31;;;24.35;50.83
32789;BME280;19141;48.980;8.410;2023-07-31T13:39:47;99776.97;;;24.34;51.14
32789;BME280;19141;48.980;8.410;2023-07-31T13:42:12;99779.69;;;24.14;52.19
32789;BME280;19141;48.980;8.410;2023-07-31T13:44:39;99777.22;;;24.23;52.33
32789;BME280;19141;48.980;8.410;2023-07-31T13:47:04;99766.34;;;23.97;51.09
32789;BME280;19141;48.980;8.410;2023-07-31T13:49:30;99766.63;;;23.96;51.12
32789;BME280;19141;48.980;8.410;2023-07-31T13:51:57;99771.28;;;24.00;51.75
32789;BME280;19141;48.980;8.410;2023-07-31T13:54:23;99755.19;;;24.09;52.09
32789;BME280;19141;48.980;8.410;2023-07-31T13:56:49;99757.38;;;24.07;51.43
32789;BME280;19141;48.980;8.410;2023-07-31T13:59:14;99757.63;;;24.10;51.33
32789;BME280;19141;48.980;8.410;2023-07-31T14:01:43;99756.00;;;23.99;51.23
32789;BME280;19141;48.980;8.410;2023-07-31T14:04:09;99753.31;;;23.89;50.67
32789;BME280;19141;48.980;8.410;2023-07-31T14:06:34;99757.94;;;23.78;52.04
32789;BME280;19141;48.980;8.410;2023-07-31T14:09:00;99740.81;;;23.63;51.78
32789;BME280;19141;48.980;8.410;2023-07-31T14:11:26;99750.59;;;23.64;53.29
32789;BME280;19141;48.980;8.410;2023-07-31T14:13:51;99756.84;;;23.64;53.32
32789;BME280;19141;48.980;8.410;2023-07-31T14:16:17;99752.78;;;23.62;54.13
32789;BME280;19141;48.980;8.410;2023-07-31T14:18:43;99743.22;;;23.59;54.37
32789;BME280;19141;48.980;8.410;2023-07-31T14:21:10;99750.31;;;23.70;53.89
32789;BME280;19141;48.980;8.410;2023-07-31T14:23:35;99754.94;;;23.70;53.98
32789;BME280;19141;48.980;8.410;2023-07-31T14:26:01;99761.75;;;23.62;54.76
32789;BME280;19141;48.980;8.410;2023-07-31T14:28:26;99755.22;;;23.63;54.00
32789;BME280;19141;48.980;8.410;2023-07-31T14:30:52;99750.06;;;23.62;55.01
32789;BME280;19141;48.980;8.410;2023-07-31T14:33:17;99745.13;;;23.59;54.47
32789;BME280;19141;48.980;8.410;2023-07-31T14:35:43;99743.50;;;23.58;53.74
32789;BME280;19141;48.980;8.410;2023-07-31T14:38:08;99738.59;;;23.54;52.92
32789;BME280;19141;48.980;8.410;2023-07-31T14:40:34;99730.72;;;23.58;54.59
32789;BME280;19141;48.980;8.410;2023-07-31T14:42:59;99714.69;;;23.67;54.25
32789;BME280;19141;48.980;8.410;2023-07-31T14:45:24;99717.41;;;23.77;53.37
32789;BME280;19141;48.980;8.410;2023-07-31T14:47:50;99707.91;;;23.90;53.21
32789;BME280;19141;48.980;8.410;2023-07-31T14:50:15;99706.25;;;23.99;53.11
32789;BME280;19141;48.980;8.410;2023-07-31T14:52:41;99701.88;;;24.08;55.00
32789;BME280;19141;48.980;8.410;2023-07-31T14:55:07;99705.94;;;24.16;53.51
32789;BME280;19141;48.980;8.410;2023-07-31T14:57:33;99695.06;;;24.21;52.67
32789;BME280;19141;48.980;8.410;2023-07-31T14:59:59;99695.31;;;24.24;52.84
32789;BME280;19141;48.980;8.410;2023-07-31T15:02:25;99687.19;;;24.19;52.02
32789;BME280;19141;48.980;8.410;2023-07-31T15:04:51;99678.47;;;24.17;52.74
32789;BME280;19141;48.980;8.410;2023-07-31T15:07:16;99669.19;;;24.23;53.23
32789;BME280;19141;48.980;8.410;2023-07-31T15:09:41;99660.78;;;24.20;53.91
32789;BME280;19141;48.980;8.410;2023-07-31T15:12:07;99655.88;;;24.27;52.83
32789;BME280;19141;48.980;8.410;2023-07-31T15:14:33;99655.88;;;24.22;52.34
32789;BME280;19141;48.980;8.410;2023-07-31T15:16:59;99648.53;;;24.22;52.81
32789;BME280;19141;48.980;8.410;2023-07-31T15:19:25;99642.78;;;24.24;52.30
32789;BME280;19141;48.980;8.410;2023-07-31T15:21:50;99636.28;;;24.20;52.24
32789;BME280;19141;48.980;8.410;2023-07-31T15:24:16;99633.81;;;24.28;52.91
32789;BME280;19141;48.980;8.410;2023-07-31T15:26:41;99637.63;;;24.27;53.70
32789;BME280;19141;48.980;8.410;2023-07-31T15:29:09;99644.44;;;24.35;52.54
32789;BME280;19141;48.980;8.410;2023-07-31T15:31:38;99638.44;;;24.28;52.92
32789;BME280;19141;48.980;8.410;2023-07-31T15:34:03;99632.72;;;24.34;53.58
32789;BME280;19141;48.980;8.410;2023-07-31T15:36:29;99643.59;;;24.40;53.66
32789;BME280;19141;48.980;8.410;2023-07-31T15:38:54;99644.13;;;24.31;53.65
32789;BME280;19141;48.980;8.410;2023-07-31T15:41:19;99635.19;;;24.21;53.34
32789;BME280;19141;48.980;8.410;2023-07-31T15:43:45;99634.13;;;24.12;52.59
32789;BME280;19141;48.980;8.410;2023-07-31T15:46:11;99633.88;;;24.08;54.00
32789;BME280;19141;48.980;8.410;2023-07-31T15:48:36;99648.88;;;24.00;54.83
32789;BME280;19141;48.980;8.410;2023-07-31T15:51:02;99651.31;;;23.97;53.94
32789;BME280;19141;48.980;8.410;2023-07-31T15:53:29;99650.25;;;23.77;54.95
32789;BME280;19141;48.980;8.410;2023-07-31T15:55:54;99650.53;;;23.81;55.63
32789;BME280;19141;48.980;8.410;2023-07-31T15:58:20;99655.16;;;23.75;55.76
32789;BME280;19141;48.980;8.410;2023-07-31T16:00:45;99659.50;;;23.71;54.41
32789;BME280;19141;48.980;8.410;2023-07-31T16:03:11;99660.31;;;23.56;56.46
32789;BME280;19141;48.980;8.410;2023-07-31T16:05:36;99661.97;;;23.47;58.09
32789;BME280;19141;48.980;8.410;2023-07-31T16:08:01;99664.38;;;23.39;58.49
32789;BME280;19141;48.980;8.410;2023-07-31T16:10:27;99655.41;;;23.33;60.64
32789;BME280;19141;48.980;8.410;2023-07-31T16:12:53;99661.94;;;23.27;61.86
32789;BME280;19141;48.980;8.410;2023-07-31T16:15:19;99655.13;;;23.19;61.53
32789;BME280;19141;48.980;8.410;2023-07-31T16:17:44;99651.09;;;23.22;61.35
32789;BME280;19141;48.980;8.410;2023-07-31T16:20:10;99647.25;;;23.13;62.70
32789;BME280;19141;48.980;8.410;2023-07-31T16:22:36;99639.91;;;23.08;62.98
32789;BME280;19141;48.980;8.410;2023-07-31T16:25:01;99638.03;;;23.04;63.92
32789;BME280;19141;48.980;8.410;2023-07-31T16:27:26;99636.91;;;22.94;64.88
32789;BME280;19141;48.980;8.410;2023-07-31T16:29:52;99627.13;;;22.88;65.39
32789;BME280;19141;48.980;8.410;2023-07-31T16:32:17;99620.59;;;22.84;66.53
32789;BME280;19141;48.980;8.410;2023-07-31T16:34:43;99617.84;;;22.79;68.04
32789;BME280;19141;48.980;8.410;2023-07-31T16:37:08;99609.41;;;22.75;69.10
32789;BME280;19141;48.980;8.410;2023-07-31T16:39:34;99600.19;;;22.66;70.03
32789;BME280;19141;48.980;8.410;2023-07-31T16:42:05;99599.63;;;22.64;71.50
32789;BME280;19141;48.980;8.410;2023-07-31T16:44:31;99590.13;;;22.67;71.74
32789;BME280;19141;48.980;8.410;2023-07-31T16:46:56;99590.38;;;22.50;72.53
32789;BME280;19141;48.980;8.410;2023-07-31T16:49:21;99599.59;;;22.44;72.82
32789;BME280;19141;48.980;8.410;2023-07-31T16:51:47;99596.28;;;22.32;74.02
32789;BME280;19141;48.980;8.410;2023-07-31T16:54:13;99600.63;;;22.33;76.26
32789;BME280;19141;48.980;8.410;2023-07-31T16:56:38;99589.19;;;22.20;77.12
32789;BME280;19141;48.980;8.410;2023-07-31T16:59:04;99593.16;;;22.08;76.38
32789;BME280;19141;48.980;8.410;2023-07-31T17:01:29;99592.53;;;21.90;77.90
32789;BME280;19141;48.980;8.410;2023-07-31T17:03:57;99583.00;;;21.83;77.19
32789;BME280;19141;48.980;8.410;2023-07-31T17:06:25;99583.50;;;21.75;77.99
32789;BME280;19141;48.980;8.410;2023-07-31T17:08:50;99592.16;;;21.66;78.95
32789;BME280;19141;48.980;8.410;2023-07-31T17:11:16;99587.22;;;21.63;80.04
32789;BME280;19141;48.980;8.410;2023-07-31T17:13:41;99579.34;;;21.57;79.39
32789;BME280;19141;48.980;8.410;2023-07-31T17:16:06;99571.69;;;21.49;81.57
32789;BME280;19141;48.980;8.410;2023-07-31T17:18:32;99572.25;;;21.51;80.81
32789;BME280;19141;48.980;8.410;2023-07-31T17:20:57;99569.22;;;21.42;81.18